Galt, Canada
Current Conditions -  °F | °C
As of 10:00 PM on Sunday 21 Dec 2014 (Local Time) from CYKF Reporting Station
Clear Clear  
Wind Chill: 14°   Ceiling: Unl
Heat Index: 21°   Visibility: 7mi
Dew Point: 18°   Wind: 6mph
Humidity: 86%   Direction: 80°E
Pressure: 30.24"   Gusts: NA
Location:  43.35°N, 80.3°W
Report Text: CYKF 220300Z AUTO 08005KT 7SM CLR M06/M08 A3024 RMK SLP257
Loading
Personal Weather Stations






























Interactive Weather Map New forecast layout! Learn more

10-Day Weather Forecast

Advertisements
Track Severe Weather on mobile